sensor_id;sensor_type;location;lat;lon;timestamp;pressure;altitude;pressure_sealevel;temperature;humidity
17525;BME280;40431;52.198;9.902;2023-04-25T00:01:20;99820.28;;;7.14;100.00
17525;BME280;40431;52.198;9.902;2023-04-25T00:03:46;99815.78;;;7.14;100.00
17525;BME280;40431;52.198;9.902;2023-04-25T00:06:13;99815.97;;;7.11;100.00
17525;BME280;40431;52.198;9.902;2023-04-25T00:08:40;99803.44;;;7.10;100.00
17525;BME280;40431;52.198;9.902;2023-04-25T00:11:08;99807.97;;;7.10;100.00
17525;BME280;40431;52.198;9.902;2023-04-25T00:13:34;99816.13;;;7.08;100.00
17525;BME280;40431;52.198;9.902;2023-04-25T00:16:01;99812.50;;;7.09;100.00
17525;BME280;40431;52.198;9.902;2023-04-25T00:18:28;99819.63;;;7.10;100.00
17525;BME280;40431;52.198;9.902;2023-04-25T00:20:55;99818.13;;;7.05;100.00
17525;BME280;40431;52.198;9.902;2023-04-25T00:23:21;99819.97;;;7.04;100.00
17525;BME280;40431;52.198;9.902;2023-04-25T00:25:49;99820.16;;;7.01;100.00
17525;BME280;40431;52.198;9.902;2023-04-25T00:28:17;99821.91;;;7.02;100.00
17525;BME280;40431;52.198;9.902;2023-04-25T00:30:43;99823.63;;;7.03;100.00
17525;BME280;40431;52.198;9.902;2023-04-25T00:33:10;99821.22;;;6.98;100.00
17525;BME280;40431;52.198;9.902;2023-04-25T00:35:36;99818.09;;;6.90;100.00
17525;BME280;40431;52.198;9.902;2023-04-25T00:38:02;99816.06;;;6.94;100.00
17525;BME280;40431;52.198;9.902;2023-04-25T00:40:29;99820.50;;;6.95;100.00
17525;BME280;40431;52.198;9.902;2023-04-25T00:42:55;99825.03;;;6.94;100.00
17525;BME280;40431;52.198;9.902;2023-04-25T00:45:27;99825.28;;;6.90;100.00
17525;BME280;40431;52.198;9.902;2023-04-25T00:47:54;99814.50;;;6.90;100.00
17525;BME280;40431;52.198;9.902;2023-04-25T00:50:21;99808.50;;;6.84;100.00
17525;BME280;40431;52.198;9.902;2023-04-25T00:52:47;99812.00;;;6.87;100.00
17525;BME280;40431;52.198;9.902;2023-04-25T00:55:14;99816.69;;;6.83;100.00
17525;BME280;40431;52.198;9.902;2023-04-25T00:57:41;99815.84;;;6.82;100.00
17525;BME280;40431;52.198;9.902;2023-04-25T01:00:09;99819.47;;;6.81;100.00
17525;BME280;40431;52.198;9.902;2023-04-25T01:02:37;99817.72;;;6.80;100.00
17525;BME280;40431;52.198;9.902;2023-04-25T01:05:04;99817.50;;;6.85;100.00
17525;BME280;40431;52.198;9.902;2023-04-25T01:07:31;99822.97;;;6.83;100.00
17525;BME280;40431;52.198;9.902;2023-04-25T01:09:57;99818.53;;;6.82;100.00
17525;BME280;40431;52.198;9.902;2023-04-25T01:12:24;99809.22;;;6.72;100.00
17525;BME280;40431;52.198;9.902;2023-04-25T01:14:50;99814.44;;;6.75;100.00
17525;BME280;40431;52.198;9.902;2023-04-25T01:17:17;99810.19;;;6.71;100.00
17525;BME280;40431;52.198;9.902;2023-04-25T01:19:45;99807.47;;;6.71;100.00
17525;BME280;40431;52.198;9.902;2023-04-25T01:22:15;99800.19;;;6.73;100.00
17525;BME280;40431;52.198;9.902;2023-04-25T01:24:42;99812.09;;;6.69;100.00
17525;BME280;40431;52.198;9.902;2023-04-25T01:27:09;99811.91;;;6.72;100.00
17525;BME280;40431;52.198;9.902;2023-04-25T01:29:36;99809.03;;;6.75;100.00
17525;BME280;40431;52.198;9.902;2023-04-25T01:32:03;99808.88;;;6.78;100.00
17525;BME280;40431;52.198;9.902;2023-04-25T01:34:29;99810.59;;;6.79;100.00
17525;BME280;40431;52.198;9.902;2023-04-25T01:36:56;99810.97;;;6.73;100.00
17525;BME280;40431;52.198;9.902;2023-04-25T01:39:24;99816.19;;;6.76;100.00
17525;BME280;40431;52.198;9.902;2023-04-25T01:41:51;99811.91;;;6.72;100.00
17525;BME280;40431;52.198;9.902;2023-04-25T01:44:17;99823.41;;;6.76;100.00
17525;BME280;40431;52.198;9.902;2023-04-25T01:46:43;99823.13;;;6.80;100.00
17525;BME280;40431;52.198;9.902;2023-04-25T01:49:10;99830.25;;;6.81;100.00
17525;BME280;40431;52.198;9.902;2023-04-25T01:51:36;99825.22;;;6.75;100.00
17525;BME280;40431;52.198;9.902;2023-04-25T01:54:03;99821.84;;;6.72;100.00
17525;BME280;40431;52.198;9.902;2023-04-25T01:56:31;99825.41;;;6.72;100.00
17525;BME280;40431;52.198;9.902;2023-04-25T01:58:59;99832.72;;;6.70;100.00
17525;BME280;40431;52.198;9.902;2023-04-25T02:01:25;99825.56;;;6.69;100.00
17525;BME280;40431;52.198;9.902;2023-04-25T02:03:51;99826.44;;;6.69;100.00
17525;BME280;40431;52.198;9.902;2023-04-25T02:06:18;99827.31;;;6.70;100.00
17525;BME280;40431;52.198;9.902;2023-04-25T02:08:44;99830.97;;;6.69;100.00
17525;BME280;40431;52.198;9.902;2023-04-25T02:11:11;99829.03;;;6.71;100.00
17525;BME280;40431;52.198;9.902;2023-04-25T02:13:38;99834.41;;;6.71;100.00
17525;BME280;40431;52.198;9.902;2023-04-25T02:16:05;99834.09;;;6.77;100.00
17525;BME280;40431;52.198;9.902;2023-04-25T02:18:32;99838.78;;;6.74;100.00
17525;BME280;40431;52.198;9.902;2023-04-25T02:20:59;99840.34;;;6.78;100.00
17525;BME280;40431;52.198;9.902;2023-04-25T02:23:26;99844.06;;;6.75;100.00
17525;BME280;40431;52.198;9.902;2023-04-25T02:25:52;99842.34;;;6.74;100.00
17525;BME280;40431;52.198;9.902;2023-04-25T02:28:20;99831.91;;;6.68;100.00
17525;BME280;40431;52.198;9.902;2023-04-25T02:30:48;99837.72;;;6.60;100.00
17525;BME280;40431;52.198;9.902;2023-04-25T02:33:14;99836.69;;;6.63;100.00
17525;BME280;40431;52.198;9.902;2023-04-25T02:35:42;99838.00;;;6.56;100.00
17525;BME280;40431;52.198;9.902;2023-04-25T02:38:08;99835.31;;;6.56;100.00
17525;BME280;40431;52.198;9.902;2023-04-25T02:40:34;99838.16;;;6.52;100.00
17525;BME280;40431;52.198;9.902;2023-04-25T02:43:01;99841.03;;;6.49;100.00
17525;BME280;40431;52.198;9.902;2023-04-25T02:45:27;99834.94;;;6.46;100.00
17525;BME280;40431;52.198;9.902;2023-04-25T02:47:55;99835.97;;;6.43;100.00
17525;BME280;40431;52.198;9.902;2023-04-25T02:50:21;99847.00;;;6.39;100.00
17525;BME280;40431;52.198;9.902;2023-04-25T02:52:48;99846.47;;;6.32;100.00
17525;BME280;40431;52.198;9.902;2023-04-25T02:55:14;99847.44;;;6.31;100.00
17525;BME280;40431;52.198;9.902;2023-04-25T02:57:41;99849.66;;;6.23;100.00
17525;BME280;40431;52.198;9.902;2023-04-25T03:00:08;99862.97;;;6.26;100.00
17525;BME280;40431;52.198;9.902;2023-04-25T03:02:37;99865.66;;;6.26;100.00
17525;BME280;40431;52.198;9.902;2023-04-25T03:05:05;99874.84;;;6.22;100.00
17525;BME280;40431;52.198;9.902;2023-04-25T03:07:32;99879.50;;;6.18;100.00
17525;BME280;40431;52.198;9.902;2023-04-25T03:09:58;99873.59;;;6.11;100.00
17525;BME280;40431;52.198;9.902;2023-04-25T03:12:25;99877.09;;;6.13;100.00
17525;BME280;40431;52.198;9.902;2023-04-25T03:14:51;99877.09;;;6.13;100.00
17525;BME280;40431;52.198;9.902;2023-04-25T03:17:18;99880.91;;;6.09;100.00
17525;BME280;40431;52.198;9.902;2023-04-25T03:19:44;99877.81;;;6.17;100.00
17525;BME280;40431;52.198;9.902;2023-04-25T03:22:12;99884.59;;;6.24;100.00
17525;BME280;40431;52.198;9.902;2023-04-25T03:24:38;99887.19;;;6.26;100.00
17525;BME280;40431;52.198;9.902;2023-04-25T03:27:05;99878.34;;;6.24;100.00
17525;BME280;40431;52.198;9.902;2023-04-25T03:29:31;99880.31;;;6.20;100.00
17525;BME280;40431;52.198;9.902;2023-04-25T03:31:58;99879.50;;;6.18;100.00
17525;BME280;40431;52.198;9.902;2023-04-25T03:34:24;99884.84;;;6.20;100.00
17525;BME280;40431;52.198;9.902;2023-04-25T03:36:51;99883.72;;;6.24;100.00
17525;BME280;40431;52.198;9.902;2023-04-25T03:39:18;99894.31;;;6.27;100.00
17525;BME280;40431;52.198;9.902;2023-04-25T03:41:46;99890.81;;;6.25;100.00
17525;BME280;40431;52.198;9.902;2023-04-25T03:44:12;99896.06;;;6.28;100.00
17525;BME280;40431;52.198;9.902;2023-04-25T03:46:39;99900.72;;;6.24;100.00
17525;BME280;40431;52.198;9.902;2023-04-25T03:49:05;99908.63;;;6.27;100.00
17525;BME280;40431;52.198;9.902;2023-04-25T03:51:31;99912.13;;;6.29;100.00
17525;BME280;40431;52.198;9.902;2023-04-25T03:53:58;99920.03;;;6.32;100.00
17525;BME280;40431;52.198;9.902;2023-04-25T03:56:26;99917.44;;;6.31;100.00
17525;BME280;40431;52.198;9.902;2023-04-25T03:58:53;99913.94;;;6.29;100.00
17525;BME280;40431;52.198;9.902;2023-04-25T04:01:19;99919.00;;;6.35;100.00
17525;BME280;40431;52.198;9.902;2023-04-25T04:03:46;99915.00;;;6.26;100.00
17525;BME280;40431;52.198;9.902;2023-04-25T04:06:12;99929.94;;;6.32;100.00
17525;BME280;40431;52.198;9.902;2023-04-25T04:08:40;99921.88;;;6.32;100.00
17525;BME280;40431;52.198;9.902;2023-04-25T04:11:06;99925.78;;;6.26;100.00
17525;BME280;40431;52.198;9.902;2023-04-25T04:13:34;99934.06;;;6.22;100.00
17525;BME280;40431;52.198;9.902;2023-04-25T04:16:00;99934.53;;;6.30;100.00
17525;BME280;40431;52.198;9.902;2023-04-25T04:18:27;99931.22;;;6.25;100.00
17525;BME280;40431;52.198;9.902;2023-04-25T04:20:53;99935.03;;;6.21;100.00
17525;BME280;40431;52.198;9.902;2023-04-25T04:23:19;99937.88;;;6.17;100.00
17525;BME280;40431;52.198;9.902;2023-04-25T04:25:47;99933.22;;;6.21;100.00
17525;BME280;40431;52.198;9.902;2023-04-25T04:28:14;99931.38;;;6.22;100.00
17525;BME280;40431;52.198;9.902;2023-04-25T04:30:42;99939.47;;;6.22;100.00
17525;BME280;40431;52.198;9.902;2023-04-25T04:33:12;99942.78;;;6.27;100.00
17525;BME280;40431;52.198;9.902;2023-04-25T04:35:38;99947.53;;;6.22;100.00
17525;BME280;40431;52.198;9.902;2023-04-25T04:38:05;99955.31;;;6.28;100.00
17525;BME280;40431;52.198;9.902;2023-04-25T04:40:31;99955.63;;;6.22;100.00
17525;BME280;40431;52.198;9.902;2023-04-25T04:42:57;99972.31;;;6.28;100.00
17525;BME280;40431;52.198;9.902;2023-04-25T04:45:24;99958.22;;;6.23;100.00
17525;BME280;40431;52.198;9.902;2023-04-25T04:47:51;99962.41;;;6.29;100.00
17525;BME280;40431;52.198;9.902;2023-04-25T04:50:20;99971.28;;;6.31;100.00
17525;BME280;40431;52.198;9.902;2023-04-25T04:52:47;99972.13;;;6.31;100.00
17525;BME280;40431;52.198;9.902;2023-04-25T04:55:13;99965.72;;;6.34;100.00
17525;BME280;40431;52.198;9.902;2023-04-25T04:57:39;99977.94;;;6.41;100.00
17525;BME280;40431;52.198;9.902;2023-04-25T05:00:07;99976.19;;;6.40;100.00
17525;BME280;40431;52.198;9.902;2023-04-25T05:02:36;99982.28;;;6.44;100.00
17525;BME280;40431;52.198;9.902;2023-04-25T05:05:04;99986.78;;;6.43;100.00
17525;BME280;40431;52.198;9.902;2023-04-25T05:07:31;99994.09;;;6.41;100.00
17525;BME280;40431;52.198;9.902;2023-04-25T05:09:57;99988.69;;;6.41;100.00
17525;BME280;40431;52.198;9.902;2023-04-25T05:12:24;99995.97;;;6.39;100.00
17525;BME280;40431;52.198;9.902;2023-04-25T05:14:50;99997.25;;;6.49;100.00
17525;BME280;40431;52.198;9.902;2023-04-25T05:17:16;99999.63;;;6.56;100.00
17525;BME280;40431;52.198;9.902;2023-04-25T05:19:43;100002.88;;;6.45;100.00
17525;BME280;40431;52.198;9.902;2023-04-25T05:22:11;100003.13;;;6.40;100.00
17525;BME280;40431;52.198;9.902;2023-04-25T05:24:37;100009.91;;;6.47;100.00
17525;BME280;40431;52.198;9.902;2023-04-25T05:27:04;99998.34;;;6.45;100.00
17525;BME280;40431;52.198;9.902;2023-04-25T05:29:31;100005.09;;;6.37;100.00
17525;BME280;40431;52.198;9.902;2023-04-25T05:31:57;100006.34;;;6.47;100.00
17525;BME280;40431;52.198;9.902;2023-04-25T05:34:24;100012.53;;;6.49;100.00
17525;BME280;40431;52.198;9.902;2023-04-25T05:36:51;100015.28;;;6.47;100.00
17525;BME280;40431;52.198;9.902;2023-04-25T05:39:18;100013.22;;;6.52;100.00
17525;BME280;40431;52.198;9.902;2023-04-25T05:41:45;100009.75;;;6.50;100.00
17525;BME280;40431;52.198;9.902;2023-04-25T05:44:11;100021.41;;;6.51;100.00
17525;BME280;40431;52.198;9.902;2023-04-25T05:46:37;100024.16;;;6.49;100.00
17525;BME280;40431;52.198;9.902;2023-04-25T05:49:04;100035.31;;;6.59;100.00
17525;BME280;40431;52.198;9.902;2023-04-25T05:51:30;100038.81;;;6.61;100.00
17525;BME280;40431;52.198;9.902;2023-04-25T05:53:57;100033.81;;;6.71;100.00
17525;BME280;40431;52.198;9.902;2023-04-25T05:56:24;100039.06;;;6.74;100.00
17525;BME280;40431;52.198;9.902;2023-04-25T05:58:51;100039.66;;;6.79;100.00
17525;BME280;40431;52.198;9.902;2023-04-25T06:01:17;100041.25;;;6.83;100.00
17525;BME280;40431;52.198;9.902;2023-04-25T06:03:44;100042.66;;;6.91;100.00
17525;BME280;40431;52.198;9.902;2023-04-25T06:06:11;100039.66;;;6.79;100.00
17525;BME280;40431;52.198;9.902;2023-04-25T06:08:37;100048.25;;;6.70;100.00
17525;BME280;40431;52.198;9.902;2023-04-25T06:11:04;100049.97;;;6.71;100.00
17525;BME280;40431;52.198;9.902;2023-04-25T06:13:32;100048.06;;;6.73;100.00
17525;BME280;40431;52.198;9.902;2023-04-25T06:15:58;100055.34;;;6.71;100.00
17525;BME280;40431;52.198;9.902;2023-04-25T06:18:25;100058.53;;;6.62;100.00
17525;BME280;40431;52.198;9.902;2023-04-25T06:20:51;100061.22;;;6.62;100.00
17525;BME280;40431;52.198;9.902;2023-04-25T06:23:18;100057.50;;;6.64;100.00
17525;BME280;40431;52.198;9.902;2023-04-25T06:25:44;100060.19;;;6.64;100.00
17525;BME280;40431;52.198;9.902;2023-04-25T06:28:10;100061.88;;;6.67;100.00
17525;BME280;40431;52.198;9.902;2023-04-25T06:30:38;100062.81;;;6.66;100.00
17525;BME280;40431;52.198;9.902;2023-04-25T06:33:04;100064.56;;;6.67;100.00
17525;BME280;40431;52.198;9.902;2023-04-25T06:35:31;100066.06;;;6.55;100.00
17525;BME280;40431;52.198;9.902;2023-04-25T06:37:57;100068.94;;;6.52;100.00
17525;BME280;40431;52.198;9.902;2023-04-25T06:40:24;100069.41;;;6.60;100.00
17525;BME280;40431;52.198;9.902;2023-04-25T06:42:50;100076.38;;;6.64;100.00
17525;BME280;40431;52.198;9.902;2023-04-25T06:45:16;100069.41;;;6.60;100.00
17525;BME280;40431;52.198;9.902;2023-04-25T06:47:44;100079.06;;;6.64;100.00
17525;BME280;40431;52.198;9.902;2023-04-25T06:50:10;100074.56;;;6.65;100.00
17525;BME280;40431;52.198;9.902;2023-04-25T06:52:37;100078.19;;;6.81;100.00
17525;BME280;40431;52.198;9.902;2023-04-25T06:55:05;100078.31;;;6.96;100.00
17525;BME280;40431;52.198;9.902;2023-04-25T06:57:31;100068.31;;;6.98;97.01
17525;BME280;40431;52.198;9.902;2023-04-25T06:59:58;100073.69;;;6.98;93.96
17525;BME280;40431;52.198;9.902;2023-04-25T07:02:24;100073.69;;;7.15;93.82
17525;BME280;40431;52.198;9.902;2023-04-25T07:04:52;100082.31;;;7.38;92.98
17525;BME280;40431;52.198;9.902;2023-04-25T07:07:18;100075.38;;;7.50;93.08
17525;BME280;40431;52.198;9.902;2023-04-25T07:09:45;100082.50;;;7.67;94.84
17525;BME280;40431;52.198;9.902;2023-04-25T07:12:11;100078.22;;;7.63;92.04
17525;BME280;40431;52.198;9.902;2023-04-25T07:14:38;100082.31;;;7.38;83.17
17525;BME280;40431;52.198;9.902;2023-04-25T07:17:04;100075.34;;;7.34;79.38
17525;BME280;40431;52.198;9.902;2023-04-25T07:19:31;100077.06;;;7.35;79.63
17525;BME280;40431;52.198;9.902;2023-04-25T07:21:59;100088.06;;;7.48;84.10
17525;BME280;40431;52.198;9.902;2023-04-25T07:24:26;100084.25;;;7.52;80.89
17525;BME280;40431;52.198;9.902;2023-04-25T07:26:52;100094.41;;;7.63;82.10
17525;BME280;40431;52.198;9.902;2023-04-25T07:29:18;100090.25;;;7.73;84.79
17525;BME280;40431;52.198;9.902;2023-04-25T07:31:45;100095.22;;;7.65;82.68
17525;BME280;40431;52.198;9.902;2023-04-25T07:34:11;100095.22;;;7.65;81.16
17525;BME280;40431;52.198;9.902;2023-04-25T07:36:37;100091.38;;;7.69;81.84
17525;BME280;40431;52.198;9.902;2023-04-25T07:39:06;100098.88;;;7.80;83.83
17525;BME280;40431;52.198;9.902;2023-04-25T07:41:34;100100.72;;;7.79;83.86
17525;BME280;40431;52.198;9.902;2023-04-25T07:44:00;100094.34;;;7.80;84.35
17525;BME280;40431;52.198;9.902;2023-04-25T07:46:27;100096.28;;;7.78;82.18
17525;BME280;40431;52.198;9.902;2023-04-25T07:48:53;100094.28;;;7.82;82.27
17525;BME280;40431;52.198;9.902;2023-04-25T07:51:19;100100.53;;;7.98;84.37
17525;BME280;40431;52.198;9.902;2023-04-25T07:53:47;100100.81;;;7.94;81.29
17525;BME280;40431;52.198;9.902;2023-04-25T07:56:15;100101.47;;;7.81;81.61
17525;BME280;40431;52.198;9.902;2023-04-25T07:58:41;100100.44;;;7.68;82.54
17525;BME280;40431;52.198;9.902;2023-04-25T08:01:08;100104.59;;;7.58;83.28
17525;BME280;40431;52.198;9.902;2023-04-25T08:03:34;100117.13;;;7.43;85.30
17525;BME280;40431;52.198;9.902;2023-04-25T08:06:00;100119.56;;;7.31;86.59
17525;BME280;40431;52.198;9.902;2023-04-25T08:08:27;100121.63;;;7.26;88.18
17525;BME280;40431;52.198;9.902;2023-04-25T08:10:53;100116.38;;;7.23;87.49
17525;BME280;40431;52.198;9.902;2023-04-25T08:13:21;100136.13;;;7.24;86.19
17525;BME280;40431;52.198;9.902;2023-04-25T08:15:47;100128.50;;;7.32;87.46
17525;BME280;40431;52.198;9.902;2023-04-25T08:18:14;100127.56;;;7.33;85.46
17525;BME280;40431;52.198;9.902;2023-04-25T08:20:40;100135.28;;;7.39;82.33
17525;BME280;40431;52.198;9.902;2023-04-25T08:23:06;100143.06;;;7.45;83.06
17525;BME280;40431;52.198;9.902;2023-04-25T08:25:33;100138.28;;;7.50;81.03
17525;BME280;40431;52.198;9.902;2023-04-25T08:27:59;100142.66;;;7.53;80.39
17525;BME280;40431;52.198;9.902;2023-04-25T08:30:29;100140.19;;;7.48;73.36
17525;BME280;40431;52.198;9.902;2023-04-25T08:32:56;100146.91;;;7.57;74.51
17525;BME280;40431;52.198;9.902;2023-04-25T08:35:22;100138.09;;;7.53;73.63
17525;BME280;40431;52.198;9.902;2023-04-25T08:37:49;100152.13;;;7.60;76.16
17525;BME280;40431;52.198;9.902;2023-04-25T08:40:16;100160.00;;;7.65;76.26
17525;BME280;40431;52.198;9.902;2023-04-25T08:42:42;100152.16;;;7.76;73.13
17525;BME280;40431;52.198;9.902;2023-04-25T08:45:10;100157.03;;;8.01;73.19
17525;BME280;40431;52.198;9.902;2023-04-25T08:47:39;100174.34;;;8.29;74.99
17525;BME280;40431;52.198;9.902;2023-04-25T08:50:06;100164.88;;;8.38;71.30
17525;BME280;40431;52.198;9.902;2023-04-25T08:52:36;100165.22;;;8.48;68.21
17525;BME280;40431;52.198;9.902;2023-04-25T08:55:04;100165.38;;;8.61;68.84
17525;BME280;40431;52.198;9.902;2023-04-25T08:57:33;100170.84;;;8.75;66.07
17525;BME280;40431;52.198;9.902;2023-04-25T09:00:01;100164.09;;;8.82;66.40
17525;BME280;40431;52.198;9.902;2023-04-25T09:02:28;100176.88;;;8.95;65.51
17525;BME280;40431;52.198;9.902;2023-04-25T09:04:57;100177.28;;;9.03;64.79
17525;BME280;40431;52.198;9.902;2023-04-25T09:07:23;100184.25;;;9.07;64.82
17525;BME280;40431;52.198;9.902;2023-04-25T09:09:50;100172.75;;;8.73;63.65
17525;BME280;40431;52.198;9.902;2023-04-25T09:12:18;100174.13;;;8.50;63.27
17525;BME280;40431;52.198;9.902;2023-04-25T09:15:01;100174.97;;;8.34;66.66
17525;BME280;40431;52.198;9.902;2023-04-25T09:17:28;100176.38;;;8.26;68.72
17525;BME280;40431;52.198;9.902;2023-04-25T09:19:55;100187.72;;;8.16;69.49
17525;BME280;40431;52.198;9.902;2023-04-25T09:22:22;100188.06;;;8.10;68.39
17525;BME280;40431;52.198;9.902;2023-04-25T09:24:49;100205.41;;;8.06;69.66
17525;BME280;40431;52.198;9.902;2023-04-25T09:27:18;100209.13;;;7.88;71.63
17525;BME280;40431;52.198;9.902;2023-04-25T09:29:45;100210.56;;;7.77;71.59
17525;BME280;40431;52.198;9.902;2023-04-25T09:32:14;100218.13;;;7.71;72.62
17525;BME280;40431;52.198;9.902;2023-04-25T09:34:42;100221.38;;;7.77;72.57
17525;BME280;40431;52.198;9.902;2023-04-25T09:37:09;100232.06;;;7.79;73.65
17525;BME280;40431;52.198;9.902;2023-04-25T09:39:38;100219.59;;;8.10;74.61
17525;BME280;40431;52.198;9.902;2023-04-25T09:42:05;100224.31;;;8.38;72.06
17525;BME280;40431;52.198;9.902;2023-04-25T09:44:31;100218.72;;;8.41;67.63
17525;BME280;40431;52.198;9.902;2023-04-25T09:46:58;100213.31;;;8.41;62.01
17525;BME280;40431;52.198;9.902;2023-04-25T09:49:25;100211.56;;;8.40;64.45
17525;BME280;40431;52.198;9.902;2023-04-25T09:51:55;100217.34;;;8.50;62.47
17525;BME280;40431;52.198;9.902;2023-04-25T09:54:25;100230.41;;;8.74;63.99
17525;BME280;40431;52.198;9.902;2023-04-25T09:56:53;100234.59;;;9.10;67.31
17525;BME280;40431;52.198;9.902;2023-04-25T09:59:20;100227.72;;;9.18;61.36
17525;BME280;40431;52.198;9.902;2023-04-25T10:01:48;100228.72;;;9.17;60.95
17525;BME280;40431;52.198;9.902;2023-04-25T10:04:19;100215.69;;;8.94;58.57
17525;BME280;40431;52.198;9.902;2023-04-25T10:06:48;100221.66;;;8.84;60.36
17525;BME280;40431;52.198;9.902;2023-04-25T10:09:16;100231.56;;;8.84;60.45
17525;BME280;40431;52.198;9.902;2023-04-25T10:11:44;100230.31;;;8.75;60.77
17525;BME280;40431;52.198;9.902;2023-04-25T10:14:12;100230.84;;;8.66;58.98
17525;BME280;40431;52.198;9.902;2023-04-25T10:16:40;100237.03;;;8.68;58.97
17525;BME280;40431;52.198;9.902;2023-04-25T10:19:07;100225.84;;;8.74;61.02
17525;BME280;40431;52.198;9.902;2023-04-25T10:21:34;100229.78;;;8.84;62.52
17525;BME280;40431;52.198;9.902;2023-04-25T10:24:04;100237.94;;;9.13;63.58
17525;BME280;40431;52.198;9.902;2023-04-25T10:26:31;100236.78;;;9.33;61.59
17525;BME280;40431;52.198;9.902;2023-04-25T10:28:59;100229.94;;;9.57;60.71
17525;BME280;40431;52.198;9.902;2023-04-25T10:31:29;100233.34;;;9.75;62.24
17525;BME280;40431;52.198;9.902;2023-04-25T10:33:56;100239.03;;;9.84;63.28
17525;BME280;40431;52.198;9.902;2023-04-25T10:36:25;100240.00;;;9.98;60.06
17525;BME280;40431;52.198;9.902;2023-04-25T10:38:54;100230.69;;;9.88;58.18
17525;BME280;40431;52.198;9.902;2023-04-25T10:41:21;100239.13;;;9.68;55.07
17525;BME280;40431;52.198;9.902;2023-04-25T10:43:49;100240.97;;;9.53;58.87
17525;BME280;40431;52.198;9.902;2023-04-25T10:46:22;100237.22;;;9.26;55.60
17525;BME280;40431;52.198;9.902;2023-04-25T10:48:51;100243.56;;;9.10;58.50
17525;BME280;40431;52.198;9.902;2023-04-25T10:51:20;100248.16;;;8.94;59.17
17525;BME280;40431;52.198;9.902;2023-04-25T10:53:47;100250.78;;;8.79;58.64
17525;BME280;40431;52.198;9.902;2023-04-25T10:56:23;100247.06;;;8.66;61.59
17525;BME280;40431;52.198;9.902;2023-04-25T10:58:51;100261.53;;;8.65;64.27
17525;BME280;40431;52.198;9.902;2023-04-25T11:01:20;100254.28;;;8.65;66.23
17525;BME280;40431;52.198;9.902;2023-04-25T11:03:46;100251.53;;;8.67;67.28
17525;BME280;40431;52.198;9.902;2023-04-25T11:06:22;100249.59;;;8.69;66.78
17525;BME280;40431;52.198;9.902;2023-04-25T11:08:50;100249.59;;;8.69;65.96
17525;BME280;40431;52.198;9.902;2023-04-25T11:11:18;100246.78;;;8.71;65.28
17525;BME280;40431;52.198;9.902;2023-04-25T11:13:47;100245.38;;;8.79;66.17
17525;BME280;40431;52.198;9.902;2023-04-25T11:16:14;100254.00;;;8.86;65.77
17525;BME280;40431;52.198;9.902;2023-04-25T11:18:41;100260.53;;;8.98;64.63
17525;BME280;40431;52.198;9.902;2023-04-25T11:21:08;100258.94;;;9.10;65.81
17525;BME280;40431;52.198;9.902;2023-04-25T11:23:35;100261.84;;;9.21;66.51
17525;BME280;40431;52.198;9.902;2023-04-25T11:26:02;100263.28;;;9.12;66.98
17525;BME280;40431;52.198;9.902;2023-04-25T11:28:29;100264.66;;;9.19;66.99
17525;BME280;40431;52.198;9.902;2023-04-25T11:30:56;100260.59;;;9.12;67.26
17525;BME280;40431;52.198;9.902;2023-04-25T11:33:23;100254.16;;;8.99;65.70
17525;BME280;40431;52.198;9.902;2023-04-25T11:35:50;100257.03;;;8.96;68.39
17525;BME280;40431;52.198;9.902;2023-04-25T11:38:17;100261.03;;;9.05;67.23
17525;BME280;40431;52.198;9.902;2023-04-25T11:40:49;100269.06;;;9.06;67.49
17525;BME280;40431;52.198;9.902;2023-04-25T11:43:17;100261.19;;;9.17;68.16
17525;BME280;40431;52.198;9.902;2023-04-25T11:45:46;100267.59;;;9.31;65.21
17525;BME280;40431;52.198;9.902;2023-04-25T11:48:12;100272.22;;;9.29;64.61
17525;BME280;40431;52.198;9.902;2023-04-25T11:50:38;100265.00;;;9.13;63.51
17525;BME280;40431;52.198;9.902;2023-04-25T11:53:05;100272.28;;;8.97;64.92
17525;BME280;40431;52.198;9.902;2023-04-25T11:55:33;100267.94;;;8.94;64.45
17525;BME280;40431;52.198;9.902;2023-04-25T11:58:00;100278.44;;;8.84;65.55
17525;BME280;40431;52.198;9.902;2023-04-25T12:00:27;100279.38;;;8.83;66.33
17525;BME280;40431;52.198;9.902;2023-04-25T12:02:55;100285.84;;;8.81;67.25
17525;BME280;40431;52.198;9.902;2023-04-25T12:05:24;100285.94;;;8.79;65.95
17525;BME280;40431;52.198;9.902;2023-04-25T12:07:51;100299.84;;;8.40;68.14
17525;BME280;40431;52.198;9.902;2023-04-25T12:10:18;100310.53;;;8.09;70.94
17525;BME280;40431;52.198;9.902;2023-04-25T12:12:47;100292.66;;;7.73;73.81
17525;BME280;40431;52.198;9.902;2023-04-25T12:15:17;100317.84;;;7.56;77.89
17525;BME280;40431;52.198;9.902;2023-04-25T12:17:46;100314.59;;;7.32;81.12
17525;BME280;40431;52.198;9.902;2023-04-25T12:20:14;100314.13;;;7.24;83.19
17525;BME280;40431;52.198;9.902;2023-04-25T12:22:41;100310.88;;;7.34;83.75
17525;BME280;40431;52.198;9.902;2023-04-25T12:25:10;100317.63;;;7.43;82.00
17525;BME280;40431;52.198;9.902;2023-04-25T12:27:36;100315.50;;;7.50;81.78
17525;BME280;40431;52.198;9.902;2023-04-25T12:30:03;100320.16;;;7.64;80.96
17525;BME280;40431;52.198;9.902;2023-04-25T12:32:31;100317.50;;;7.80;80.17
17525;BME280;40431;52.198;9.902;2023-04-25T12:34:57;100328.13;;;8.00;79.82
17525;BME280;40431;52.198;9.902;2023-04-25T12:37:24;100319.88;;;8.19;78.13
17525;BME280;40431;52.198;9.902;2023-04-25T12:39:50;100315.03;;;8.42;73.23
17525;BME280;40431;52.198;9.902;2023-04-25T12:42:17;100321.78;;;8.51;72.95
17525;BME280;40431;52.198;9.902;2023-04-25T12:44:43;100315.25;;;8.71;74.10
17525;BME280;40431;52.198;9.902;2023-04-25T12:47:10;100320.88;;;8.98;72.56
17525;BME280;40431;52.198;9.902;2023-04-25T12:49:37;100310.94;;;9.15;70.08
17525;BME280;40431;52.198;9.902;2023-04-25T12:52:04;100303.16;;;9.39;65.03
17525;BME280;40431;52.198;9.902;2023-04-25T12:54:30;100303.16;;;9.39;63.08
17525;BME280;40431;52.198;9.902;2023-04-25T12:56:57;100308.06;;;9.63;62.81
17525;BME280;40431;52.198;9.902;2023-04-25T12:59:23;100300.72;;;9.79;59.04